Time;durP1;ratioP1;P1;durP2;ratioP2;P2;SDS_P1;SDS_P2;PMS_P1;PMS_P2;Temp;Humidity;BMP_temperature;BMP_pressure;BME280_temperature;BME280_humidity;BME280_pressure;Samples;Min_cycle;Max_cycle;Signal;HPM_P1;HPM_P2
2021/07/30 00:00:09;;;;;;;;;;;;;;;;;;5033442;28;1225;-81
2021/07/30 00:02:36;;;;;;;;;;;;;;;;;;5064411;28;1234;-80
2021/07/30 00:05:01;;;;;;;;;;;;;;;;;;5095444;28;1213;-80
2021/07/30 00:07:28;;;;;;;;;;;;;;;;;;5094288;28;1187;-80
2021/07/30 00:10:03;;;;;;;;;;;;;;;;;;5094329;28;1339;-80
2021/07/30 00:12:35;;;;;;;;;;;;;;;;;;5094420;28;1181;-79
2021/07/30 00:15:09;;;;;;;;;;;;;;;;;;5095581;28;921;-79
2021/07/30 00:17:34;;;;;;;;;;;;;;;;;;5094138;28;1898;-80
2021/07/30 00:20:07;;;;;;;;;;;;;;;;;;5094205;28;1149;-79
2021/07/30 00:25:04;;;;;;;;;;;;;;;;;;5095755;28;865;-78
2021/07/30 00:27:30;;;;;;;;;;;;;;;;;;5095466;28;937;-79
2021/07/30 00:30:02;;;;;;;;;;;;;;;;;;5075492;28;1259;-79
2021/07/30 00:32:27;;;;;;;;;;;;;;;;;;5075110;28;878;-79
2021/07/30 00:35:01;;;;;;;;;;;;;;;;;;5077771;28;1294;-80
2021/07/30 00:37:34;;;;;;;;;;;;;;;;;;5077539;28;1874;-79
2021/07/30 00:39:59;;;;;;;;;;;;;;;;;;5078441;28;1197;-79
2021/07/30 00:42:38;;;;;;;;;;;;;;;;;;5099109;28;909;-79
2021/07/30 00:45:09;;;;;;;;;;;;;;;;;;5098253;28;1366;-79
2021/07/30 00:47:52;;;;;;;;;;;;;;;;;;5089584;28;1292;-79
2021/07/30 00:50:18;;;;;;;;;;;;;;;;;;5078610;28;937;-79
2021/07/30 00:52:49;;;;;;;;;;;;;;;;;;5077241;28;1380;-79
2021/07/30 00:55:15;;;;;;;;;;;;;;;;;;5078519;28;1953;-79
2021/07/30 00:57:40;;;;;;;;;;;;;;;;;;5080989;28;1061;-79
2021/07/30 01:00:05;;;;;;;;;;;;;;;;;;5098704;28;819;-79
2021/07/30 01:02:36;;;;;;;;;;;;;;;;;;5080607;28;1321;-79
2021/07/30 01:05:04;;;;;;;;;;;;;;;;;;5098547;28;983;-79
2021/07/30 01:07:48;;;;;;;;;;;;;;;;;;5080313;28;1088;-79
2021/07/30 01:10:14;;;;;;;;;;;;;;;;;;5098607;28;976;-79
2021/07/30 01:12:59;;;;;;;;;;;;;;;;;;5080362;28;1143;-79
2021/07/30 01:15:24;;;;;;;;;;;;;;;;;;5080226;28;1965;-79
2021/07/30 01:17:51;;;;;;;;;;;;;;;;;;5098412;28;1024;-79
2021/07/30 01:20:17;;;;;;;;;;;;;;;;;;5098281;28;961;-79
2021/07/30 01:22:44;;;;;;;;;;;;;;;;;;5098509;28;988;-79
2021/07/30 01:25:17;;;;;;;;;;;;;;;;;;5080210;28;1159;-79
2021/07/30 01:27:43;;;;;;;;;;;;;;;;;;5098104;28;850;-80
2021/07/30 01:30:10;;;;;;;;;;;;;;;;;;5080006;28;1446;-80
2021/07/30 01:38:16;;;;;;;;;;;;;;;;;;5055725;28;1071;-82
2021/07/30 01:40:42;;;;;;;;;;;;;;;;;;5038866;28;1164;-82
2021/07/30 01:43:13;;;;;;;;;;;;;;;;;;5038933;28;1257;-81
2021/07/30 01:45:39;;;;;;;;;;;;;;;;;;5054412;28;799;-82
2021/07/30 01:48:21;;;;;;;;;;;;;;;;;;5038614;28;1328;-81
2021/07/30 01:53:36;;;;;;;;;;;;;;;;;;5055418;28;622;-82
2021/07/30 01:56:05;;;;;;;;;;;;;;;;;;5055399;28;1935;-82
2021/07/30 01:58:30;;;;;;;;;;;;;;;;;;5038223;28;1217;-82
2021/07/30 02:00:56;;;;;;;;;;;;;;;;;;5055182;28;1206;-82
2021/07/30 02:03:21;;;;;;;;;;;;;;;;;;5038655;28;1302;-82
2021/07/30 02:05:47;;;;;;;;;;;;;;;;;;5055198;28;898;-82
2021/07/30 02:08:15;;;;;;;;;;;;;;;;;;5038572;28;1356;-82
2021/07/30 02:10:49;;;;;;;;;;;;;;;;;;5038289;28;1244;-83
2021/07/30 02:15:58;;;;;;;;;;;;;;;;;;5097264;28;1910;-81
2021/07/30 02:18:25;;;;;;;;;;;;;;;;;;5079027;28;1153;-82
2021/07/30 02:20:51;;;;;;;;;;;;;;;;;;5097255;28;972;-81
2021/07/30 02:26:08;;;;;;;;;;;;;;;;;;5054997;28;1107;-81
2021/07/30 02:28:34;;;;;;;;;;;;;;;;;;5054851;28;980;-82
2021/07/30 02:31:01;;;;;;;;;;;;;;;;;;5038015;28;1324;-82
2021/07/30 02:33:27;;;;;;;;;;;;;;;;;;5038046;28;1299;-81
2021/07/30 02:35:53;;;;;;;;;;;;;;;;;;5037928;28;1878;-81
2021/07/30 02:38:19;;;;;;;;;;;;;;;;;;5037892;28;1223;-81
2021/07/30 02:41:03;;;;;;;;;;;;;;;;;;5037859;28;1363;-81
2021/07/30 02:43:34;;;;;;;;;;;;;;;;;;5037764;28;1245;-82
2021/07/30 02:46:01;;;;;;;;;;;;;;;;;;5037714;28;1210;-82
2021/07/30 02:48:27;;;;;;;;;;;;;;;;;;5033986;28;1226;-81
2021/07/30 02:50:53;;;;;;;;;;;;;;;;;;5047409;28;1073;-81
2021/07/30 02:53:20;;;;;;;;;;;;;;;;;;5037521;28;1212;-81
2021/07/30 02:55:47;;;;;;;;;;;;;;;;;;5036995;28;1878;-82
2021/07/30 02:58:12;;;;;;;;;;;;;;;;;;5036471;28;1196;-81
2021/07/30 03:00:38;;;;;;;;;;;;;;;;;;5052108;28;1281;-82
2021/07/30 03:06:04;;;;;;;;;;;;;;;;;;5016858;28;1023;-81
2021/07/30 03:08:30;;;;;;;;;;;;;;;;;;5034044;28;1287;-81
2021/07/30 03:10:56;;;;;;;;;;;;;;;;;;5034463;28;1223;-82
2021/07/30 03:13:36;;;;;;;;;;;;;;;;;;5034003;28;1089;-79
2021/07/30 03:16:03;;;;;;;;;;;;;;;;;;5032734;28;1965;-80
2021/07/30 03:18:32;;;;;;;;;;;;;;;;;;5031642;28;1315;-79
2021/07/30 03:21:05;;;;;;;;;;;;;;;;;;5033814;28;1250;-79
2021/07/30 03:23:32;;;;;;;;;;;;;;;;;;5033587;28;1212;-79
2021/07/30 03:25:58;;;;;;;;;;;;;;;;;;5033964;28;993;-79
2021/07/30 03:28:25;;;;;;;;;;;;;;;;;;5033967;28;1085;-79
2021/07/30 03:31:01;;;;;;;;;;;;;;;;;;5033674;28;1170;-80
2021/07/30 03:33:26;;;;;;;;;;;;;;;;;;5033947;28;765;-80
2021/07/30 03:35:52;;;;;;;;;;;;;;;;;;5033773;28;1882;-79
2021/07/30 03:38:19;;;;;;;;;;;;;;;;;;5031577;28;1244;-80
2021/07/30 03:45:53;;;;;;;;;;;;;;;;;;5095671;28;1043;-79
2021/07/30 03:48:19;;;;;;;;;;;;;;;;;;5095752;28;940;-79
2021/07/30 03:51:00;;;;;;;;;;;;;;;;;;5077670;28;1172;-79
2021/07/30 03:53:35;;;;;;;;;;;;;;;;;;5077741;28;1248;-79
2021/07/30 03:56:01;;;;;;;;;;;;;;;;;;5095782;28;1886;-80
2021/07/30 03:58:26;;;;;;;;;;;;;;;;;;5095461;28;1104;-79
2021/07/30 04:00:52;;;;;;;;;;;;;;;;;;5095573;28;1306;-80
2021/07/30 04:03:20;;;;;;;;;;;;;;;;;;5078318;28;1278;-80
2021/07/30 04:08:49;;;;;;;;;;;;;;;;;;5015873;28;665;-80
2021/07/30 04:11:23;;;;;;;;;;;;;;;;;;5001241;28;1149;-80
2021/07/30 04:13:48;;;;;;;;;;;;;;;;;;5001124;28;1262;-80
2021/07/30 04:19:15;;;;;;;;;;;;;;;;;;5017561;28;700;-79
2021/07/30 04:21:47;;;;;;;;;;;;;;;;;;5000941;28;1218;-80
2021/07/30 04:24:22;;;;;;;;;;;;;;;;;;5017454;28;950;-79
2021/07/30 04:26:59;;;;;;;;;;;;;;;;;;5017431;28;850;-79
2021/07/30 04:29:38;;;;;;;;;;;;;;;;;;5000847;28;1274;-80
2021/07/30 04:32:03;;;;;;;;;;;;;;;;;;5017468;28;846;-80
2021/07/30 04:34:29;;;;;;;;;;;;;;;;;;5017425;28;969;-80
2021/07/30 04:36:57;;;;;;;;;;;;;;;;;;5000714;28;1887;-80
2021/07/30 04:42:20;;;;;;;;;;;;;;;;;;5001790;28;1121;-80
2021/07/30 04:44:47;;;;;;;;;;;;;;;;;;5040018;28;1232;-79
2021/07/30 04:47:13;;;;;;;;;;;;;;;;;;5056780;28;1107;-80
2021/07/30 04:52:22;;;;;;;;;;;;;;;;;;5056680;28;969;-80
2021/07/30 04:54:49;;;;;;;;;;;;;;;;;;5039848;28;1369;-80
2021/07/30 04:57:15;;;;;;;;;;;;;;;;;;5039770;28;1891;-80
2021/07/30 04:59:41;;;;;;;;;;;;;;;;;;5039495;28;1278;-80
2021/07/30 05:02:17;;;;;;;;;;;;;;;;;;5056417;28;860;-80
2021/07/30 05:04:58;;;;;;;;;;;;;;;;;;5056300;28;1067;-79
2021/07/30 05:07:23;;;;;;;;;;;;;;;;;;5039634;28;1319;-79
2021/07/30 05:12:53;;;;;;;;;;;;;;;;;;5056202;28;1081;-79
2021/07/30 05:15:19;;;;;;;;;;;;;;;;;;5039424;28;1331;-79
2021/07/30 05:18:00;;;;;;;;;;;;;;;;;;5057161;28;1902;-80
2021/07/30 05:20:41;;;;;;;;;;;;;;;;;;5080335;28;1335;-79
2021/07/30 05:23:14;;;;;;;;;;;;;;;;;;5091652;28;1117;-79
2021/07/30 05:25:41;;;;;;;;;;;;;;;;;;5118659;28;921;-79
2021/07/30 05:28:12;;;;;;;;;;;;;;;;;;5117578;28;1167;-79
2021/07/30 05:30:50;;;;;;;;;;;;;;;;;;5117249;28;1210;-79
2021/07/30 05:33:16;;;;;;;;;;;;;;;;;;5118536;28;886;-79
2021/07/30 05:35:41;;;;;;;;;;;;;;;;;;5117270;28;1902;-80
2021/07/30 05:41:11;;;;;;;;;;;;;;;;;;5035673;28;680;-79
2021/07/30 05:43:36;;;;;;;;;;;;;;;;;;5019217;28;1402;-80
2021/07/30 05:46:03;;;;;;;;;;;;;;;;;;5019214;28;1272;-79
2021/07/30 05:48:30;;;;;;;;;;;;;;;;;;5018876;28;1169;-80
2021/07/30 05:50:57;;;;;;;;;;;;;;;;;;5035762;28;984;-79
2021/07/30 05:53:23;;;;;;;;;;;;;;;;;;5019075;28;1149;-80
2021/07/30 05:55:59;;;;;;;;;;;;;;;;;;5018892;28;1938;-80
2021/07/30 05:58:24;;;;;;;;;;;;;;;;;;5017665;28;1205;-79
2021/07/30 06:00:49;;;;;;;;;;;;;;;;;;5018823;28;1243;-80
2021/07/30 06:03:16;;;;;;;;;;;;;;;;;;5018739;28;1342;-79
2021/07/30 06:05:42;;;;;;;;;;;;;;;;;;5018848;28;1047;-79
2021/07/30 06:08:07;;;;;;;;;;;;;;;;;;5035356;28;937;-79
2021/07/30 06:10:34;;;;;;;;;;;;;;;;;;5018719;28;1208;-80
2021/07/30 06:12:59;;;;;;;;;;;;;;;;;;5092111;28;1221;-80
2021/07/30 06:15:26;;;;;;;;;;;;;;;;;;5097347;28;945;-80
2021/07/30 06:18:08;;;;;;;;;;;;;;;;;;5097397;28;968;-80
2021/07/30 06:20:35;;;;;;;;;;;;;;;;;;5097407;28;880;-79
2021/07/30 06:25:35;;;;;;;;;;;;;;;;;;5097041;28;1206;-79
2021/07/30 06:30:34;;;;;;;;;;;;;;;;;;5096578;28;814;-79
2021/07/30 06:33:05;;;;;;;;;;;;;;;;;;5095720;28;1220;-79
2021/07/30 06:38:33;;;;;;;;;;;;;;;;;;5000280;28;998;-79
2021/07/30 06:40:59;;;;;;;;;;;;;;;;;;5002469;28;986;-80
2021/07/30 06:43:33;;;;;;;;;;;;;;;;;;5014861;28;1001;-80
2021/07/30 06:46:06;;;;;;;;;;;;;;;;;;5014815;28;1070;-79
2021/07/30 06:51:27;;;;;;;;;;;;;;;;;;5014649;28;1054;-79
2021/07/30 06:53:54;;;;;;;;;;;;;;;;;;5014673;28;933;-80
2021/07/30 06:56:31;;;;;;;;;;;;;;;;;;4998054;28;1886;-79
2021/07/30 06:58:56;;;;;;;;;;;;;;;;;;5013937;28;1068;-79
2021/07/30 07:01:22;;;;;;;;;;;;;;;;;;4998134;28;1050;-80
2021/07/30 07:06:25;;;;;;;;;;;;;;;;;;5014319;28;1118;-80
2021/07/30 07:09:00;;;;;;;;;;;;;;;;;;4998023;28;1195;-80
2021/07/30 07:11:25;;;;;;;;;;;;;;;;;;5018902;28;968;-80
2021/07/30 07:13:58;;;;;;;;;;;;;;;;;;5095008;28;1233;-80
2021/07/30 07:16:35;;;;;;;;;;;;;;;;;;5095031;28;1965;-86
2021/07/30 07:19:00;;;;;;;;;;;;;;;;;;5094964;28;1418;-86
2021/07/30 07:21:38;;;;;;;;;;;;;;;;;;5095014;28;1326;-86
2021/07/30 07:24:04;;;;;;;;;;;;;;;;;;5095079;28;1310;-85
2021/07/30 07:26:29;;;;;;;;;;;;;;;;;;5095017;28;1173;-86
2021/07/30 07:31:38;;;;;;;;;;;;;;;;;;5096160;28;645;-87
2021/07/30 07:34:22;;;;;;;;;;;;;;;;;;5096167;28;988;-87
2021/07/30 07:37:08;;;;;;;;;;;;;;;;;;5076112;28;1874;-87
2021/07/30 07:39:43;;;;;;;;;;;;;;;;;;5074800;28;1156;-86
2021/07/30 07:42:25;;;;;;;;;;;;;;;;;;5075015;28;1192;-87
2021/07/30 07:53:18;;;;;;;;;;;;;;;;;;5050108;28;946;-88
2021/07/30 07:55:44;;;;;;;;;;;;;;;;;;5036947;28;1886;-87
2021/07/30 07:58:17;;;;;;;;;;;;;;;;;;5037156;28;1267;-87
2021/07/30 08:00:42;;;;;;;;;;;;;;;;;;5036567;28;1388;-89
2021/07/30 08:03:09;;;;;;;;;;;;;;;;;;5036974;28;1589;-86
2021/07/30 08:08:41;;;;;;;;;;;;;;;;;;5014290;28;1009;-89
2021/07/30 08:11:18;;;;;;;;;;;;;;;;;;5014271;28;1399;-88
2021/07/30 08:13:53;;;;;;;;;;;;;;;;;;5001855;28;1111;-86
2021/07/30 08:19:03;;;;;;;;;;;;;;;;;;5013900;28;1043;-88
2021/07/30 08:21:48;;;;;;;;;;;;;;;;;;5013918;28;1371;-88
2021/07/30 08:32:43;;;;;;;;;;;;;;;;;;5053673;28;1323;-88
2021/07/30 08:35:25;;;;;;;;;;;;;;;;;;5039615;28;1191;-87
2021/07/30 08:46:17;;;;;;;;;;;;;;;;;;5077997;28;1255;-86
2021/07/30 08:48:44;;;;;;;;;;;;;;;;;;5093979;28;1386;-88
2021/07/30 08:53:45;;;;;;;;;;;;;;;;;;5095793;28;1218;-87
2021/07/30 08:56:10;;;;;;;;;;;;;;;;;;5097670;28;1886;-87
2021/07/30 08:58:41;;;;;;;;;;;;;;;;;;5097751;28;1286;-87
2021/07/30 09:01:06;;;;;;;;;;;;;;;;;;5077038;28;1117;-82
2021/07/30 09:03:41;;;;;;;;;;;;;;;;;;5078553;28;1484;-86
2021/07/30 09:06:07;;;;;;;;;;;;;;;;;;5075379;28;1441;-88
2021/07/30 09:08:39;;;;;;;;;;;;;;;;;;5077330;28;1337;-86
2021/07/30 09:11:05;;;;;;;;;;;;;;;;;;5070364;28;1218;-86
2021/07/30 09:13:32;;;;;;;;;;;;;;;;;;5076929;28;1352;-86
2021/07/30 09:18:34;;;;;;;;;;;;;;;;;;5078525;28;1405;-87
2021/07/30 09:23:30;;;;;;;;;;;;;;;;;;5080417;28;779;-91
2021/07/30 09:26:07;;;;;;;;;;;;;;;;;;5079059;28;1255;-90
2021/07/30 09:28:52;;;;;;;;;;;;;;;;;;5079108;28;1371;-89
2021/07/30 09:31:19;;;;;;;;;;;;;;;;;;5070753;28;1321;-90
2021/07/30 09:36:25;;;;;;;;;;;;;;;;;;5071833;28;1863;-90
2021/07/30 09:41:34;;;;;;;;;;;;;;;;;;5078832;28;1342;-89
2021/07/30 09:44:12;;;;;;;;;;;;;;;;;;5076648;28;1359;-89
2021/07/30 09:46:50;;;;;;;;;;;;;;;;;;5076328;28;1546;-86
2021/07/30 09:49:32;;;;;;;;;;;;;;;;;;5076100;28;1396;-88
2021/07/30 09:57:43;;;;;;;;;;;;;;;;;;5016122;28;1944;-90
2021/07/30 10:00:08;;;;;;;;;;;;;;;;;;5028476;28;1256;-89
2021/07/30 10:02:47;;;;;;;;;;;;;;;;;;5028803;28;1607;-90
2021/07/30 10:05:28;;;;;;;;;;;;;;;;;;5031171;28;1324;-91
2021/07/30 10:16:19;;;;;;;;;;;;;;;;;;4980083;28;1914;-94
2021/07/30 10:18:59;;;;;;;;;;;;;;;;;;4963129;28;1330;-94
2021/07/30 10:21:46;;;;;;;;;;;;;;;;;;4960606;28;1161;-93
2021/07/30 10:26:54;;;;;;;;;;;;;;;;;;4976620;28;602;-94
2021/07/30 10:32:03;;;;;;;;;;;;;;;;;;4989916;28;1101;-94
2021/07/30 10:37:12;;;;;;;;;;;;;;;;;;4995984;28;1952;-94
2021/07/30 10:42:20;;;;;;;;;;;;;;;;;;4996092;28;915;-95
2021/07/30 10:47:29;;;;;;;;;;;;;;;;;;4995946;28;634;-94
2021/07/30 10:52:38;;;;;;;;;;;;;;;;;;5077302;28;617;-95
2021/07/30 10:57:48;;;;;;;;;;;;;;;;;;5078148;28;1889;-94
2021/07/30 11:00:13;;;;;;;;;;;;;;;;;;5076303;28;1424;-95
2021/07/30 11:08:09;;;;;;;;;;;;;;;;;;5096647;28;617;-90
2021/07/30 11:10:46;;;;;;;;;;;;;;;;;;5095274;28;1506;-90
2021/07/30 11:16:09;;;;;;;;;;;;;;;;;;5080366;28;1977;-90
2021/07/30 11:18:34;;;;;;;;;;;;;;;;;;5085410;28;1471;-88
2021/07/30 11:21:10;;;;;;;;;;;;;;;;;;5079736;28;1520;-86
2021/07/30 11:23:55;;;;;;;;;;;;;;;;;;5085162;28;1505;-90
2021/07/30 11:29:04;;;;;;;;;;;;;;;;;;5076033;28;621;-89
2021/07/30 11:42:40;;;;;;;;;;;;;;;;;;5075962;28;612;-89
2021/07/30 11:48:18;;;;;;;;;;;;;;;;;;5034133;28;775;-87
2021/07/30 11:50:56;;;;;;;;;;;;;;;;;;5017318;28;1162;-87
2021/07/30 11:53:23;;;;;;;;;;;;;;;;;;5019960;28;1334;-87
2021/07/30 12:01:15;;;;;;;;;;;;;;;;;;5033026;28;1220;-86
2021/07/30 12:03:58;;;;;;;;;;;;;;;;;;4997939;28;1276;-87
2021/07/30 12:09:07;;;;;;;;;;;;;;;;;;5033682;28;1573;-86
2021/07/30 12:11:34;;;;;;;;;;;;;;;;;;5018517;28;1378;-87
2021/07/30 12:14:10;;;;;;;;;;;;;;;;;;5010579;28;1258;-87
2021/07/30 12:16:38;;;;;;;;;;;;;;;;;;5010224;28;1882;-88
2021/07/30 12:19:04;;;;;;;;;;;;;;;;;;5015369;28;1339;-90
2021/07/30 12:23:58;;;;;;;;;;;;;;;;;;5077057;28;822;-90
2021/07/30 12:26:32;;;;;;;;;;;;;;;;;;5083726;28;1262;-89
2021/07/30 12:32:06;;;;;;;;;;;;;;;;;;5028748;28;1172;-84
2021/07/30 12:34:40;;;;;;;;;;;;;;;;;;5020552;28;1328;-81
2021/07/30 12:37:20;;;;;;;;;;;;;;;;;;5022614;28;1874;-84
2021/07/30 12:39:47;;;;;;;;;;;;;;;;;;5020986;28;1861;-81
2021/07/30 12:42:29;;;;;;;;;;;;;;;;;;5037958;28;961;-85
2021/07/30 12:45:14;;;;;;;;;;;;;;;;;;5020776;28;1327;-88
2021/07/30 12:50:22;;;;;;;;;;;;;;;;;;5037527;28;653;-88
2021/07/30 12:55:31;;;;;;;;;;;;;;;;;;5037058;28;1262;-89
2021/07/30 13:00:40;;;;;;;;;;;;;;;;;;5024883;28;1156;-89
2021/07/30 13:03:05;;;;;;;;;;;;;;;;;;5002877;28;1374;-88
2021/07/30 13:05:51;;;;;;;;;;;;;;;;;;5002966;28;1575;-88
2021/07/30 13:08:26;;;;;;;;;;;;;;;;;;5029004;28;1181;-87
2021/07/30 13:13:35;;;;;;;;;;;;;;;;;;5062798;28;605;-88
2021/07/30 13:16:11;;;;;;;;;;;;;;;;;;5060949;28;1906;-89
2021/07/30 13:18:36;;;;;;;;;;;;;;;;;;5058962;28;1529;-89
2021/07/30 13:21:21;;;;;;;;;;;;;;;;;;5078555;28;1254;-90
2021/07/30 13:26:39;;;;;;;;;;;;;;;;;;5080046;28;627;-90
2021/07/30 13:29:06;;;;;;;;;;;;;;;;;;5069393;28;1289;-89
2021/07/30 13:31:33;;;;;;;;;;;;;;;;;;5060754;28;1502;-83
2021/07/30 13:34:06;;;;;;;;;;;;;;;;;;5076563;28;1469;-86
2021/07/30 13:36:32;;;;;;;;;;;;;;;;;;5076739;28;1956;-84
2021/07/30 13:39:15;;;;;;;;;;;;;;;;;;5077195;28;1176;-84
2021/07/30 13:41:43;;;;;;;;;;;;;;;;;;5079484;28;889;-84
2021/07/30 13:44:27;;;;;;;;;;;;;;;;;;5076771;28;1294;-84
2021/07/30 13:46:53;;;;;;;;;;;;;;;;;;5076738;28;1159;-85
2021/07/30 13:49:25;;;;;;;;;;;;;;;;;;5076530;28;1194;-85
2021/07/30 13:51:56;;;;;;;;;;;;;;;;;;5076536;28;1210;-85
2021/07/30 13:54:22;;;;;;;;;;;;;;;;;;5076502;28;1378;-84
2021/07/30 13:56:47;;;;;;;;;;;;;;;;;;5076712;28;1875;-85
2021/07/30 13:59:29;;;;;;;;;;;;;;;;;;5077757;28;892;-85
2021/07/30 14:01:55;;;;;;;;;;;;;;;;;;5107437;28;1299;-85
2021/07/30 14:04:35;;;;;;;;;;;;;;;;;;5104308;28;1105;-85
2021/07/30 14:07:11;;;;;;;;;;;;;;;;;;5097872;28;920;-85
2021/07/30 14:09:37;;;;;;;;;;;;;;;;;;5079609;28;1265;-85
2021/07/30 14:12:03;;;;;;;;;;;;;;;;;;5079473;28;1227;-85
2021/07/30 14:17:22;;;;;;;;;;;;;;;;;;5035283;28;1898;-85
2021/07/30 14:20:06;;;;;;;;;;;;;;;;;;5018926;28;1329;-85
2021/07/30 14:25:14;;;;;;;;;;;;;;;;;;5035500;28;590;-86
2021/07/30 14:27:42;;;;;;;;;;;;;;;;;;5018563;28;1141;-85
2021/07/30 14:30:08;;;;;;;;;;;;;;;;;;5018668;28;1323;-86
2021/07/30 14:32:42;;;;;;;;;;;;;;;;;;5035184;28;976;-86
2021/07/30 14:35:20;;;;;;;;;;;;;;;;;;5018670;28;1423;-86
2021/07/30 14:37:47;;;;;;;;;;;;;;;;;;5018264;28;1948;-86
2021/07/30 14:40:26;;;;;;;;;;;;;;;;;;5018360;28;1279;-85
2021/07/30 14:42:54;;;;;;;;;;;;;;;;;;5015095;28;1248;-84
2021/07/30 14:48:03;;;;;;;;;;;;;;;;;;5035129;28;945;-86
2021/07/30 14:50:29;;;;;;;;;;;;;;;;;;5018404;28;1335;-86
2021/07/30 14:53:12;;;;;;;;;;;;;;;;;;5017812;28;1247;-86
2021/07/30 14:55:46;;;;;;;;;;;;;;;;;;5098915;28;1298;-86
2021/07/30 15:00:55;;;;;;;;;;;;;;;;;;5115753;28;980;-85
2021/07/30 15:03:20;;;;;;;;;;;;;;;;;;5115847;28;1214;-86
2021/07/30 15:05:45;;;;;;;;;;;;;;;;;;5115756;28;1268;-86
2021/07/30 15:08:21;;;;;;;;;;;;;;;;;;5116922;28;1024;-86
2021/07/30 15:10:55;;;;;;;;;;;;;;;;;;5115698;28;1180;-86
2021/07/30 15:16:10;;;;;;;;;;;;;;;;;;5110797;28;1972;-86
2021/07/30 15:21:30;;;;;;;;;;;;;;;;;;5116615;28;940;-85
2021/07/30 15:26:39;;;;;;;;;;;;;;;;;;5116740;28;656;-85
2021/07/30 15:29:11;;;;;;;;;;;;;;;;;;5115441;28;1342;-86
2021/07/30 15:31:45;;;;;;;;;;;;;;;;;;5115422;28;1272;-85
2021/07/30 15:34:11;;;;;;;;;;;;;;;;;;5115467;28;1187;-86
2021/07/30 15:36:38;;;;;;;;;;;;;;;;;;5115226;28;1870;-86
2021/07/30 15:39:25;;;;;;;;;;;;;;;;;;5115451;28;1290;-86
2021/07/30 15:41:58;;;;;;;;;;;;;;;;;;5115368;28;1203;-85
2021/07/30 15:44:23;;;;;;;;;;;;;;;;;;5115419;28;1254;-85
2021/07/30 15:46:50;;;;;;;;;;;;;;;;;;5115258;28;1381;-85
2021/07/30 15:49:21;;;;;;;;;;;;;;;;;;5115384;28;1306;-85
2021/07/30 15:57:42;;;;;;;;;;;;;;;;;;5033928;28;1949;-85
2021/07/30 16:00:08;;;;;;;;;;;;;;;;;;5033816;28;1311;-85
2021/07/30 16:02:33;;;;;;;;;;;;;;;;;;5033677;28;1139;-85
2021/07/30 16:04:58;;;;;;;;;;;;;;;;;;5019544;28;1157;-85
2021/07/30 16:07:24;;;;;;;;;;;;;;;;;;5021280;28;1398;-85
2021/07/30 16:10:00;;;;;;;;;;;;;;;;;;5021078;28;1250;-86
2021/07/30 16:12:44;;;;;;;;;;;;;;;;;;5021170;28;1266;-85
2021/07/30 16:18:13;;;;;;;;;;;;;;;;;;4978723;28;1906;-85
2021/07/30 16:20:58;;;;;;;;;;;;;;;;;;4962384;28;1142;-84
2021/07/30 16:23:25;;;;;;;;;;;;;;;;;;4962540;28;1209;-85
2021/07/30 16:25:52;;;;;;;;;;;;;;;;;;4975262;28;1294;-85
2021/07/30 16:28:36;;;;;;;;;;;;;;;;;;4977093;28;1244;-85
2021/07/30 16:31:13;;;;;;;;;;;;;;;;;;5006504;28;950;-85
2021/07/30 16:36:22;;;;;;;;;;;;;;;;;;5037806;28;1879;-85
2021/07/30 16:38:47;;;;;;;;;;;;;;;;;;5020707;28;1279;-85
2021/07/30 16:44:05;;;;;;;;;;;;;;;;;;5037462;28;654;-85
2021/07/30 16:46:39;;;;;;;;;;;;;;;;;;5020623;28;1248;-85
2021/07/30 16:54:45;;;;;;;;;;;;;;;;;;4997451;28;669;-85
2021/07/30 16:57:12;;;;;;;;;;;;;;;;;;4993337;28;1882;-85
2021/07/30 16:59:39;;;;;;;;;;;;;;;;;;4978261;28;922;-85
2021/07/30 17:02:04;;;;;;;;;;;;;;;;;;4977893;28;1203;-85
2021/07/30 17:07:17;;;;;;;;;;;;;;;;;;4977937;28;602;-85
2021/07/30 17:09:42;;;;;;;;;;;;;;;;;;4986059;28;1266;-84
2021/07/30 17:12:07;;;;;;;;;;;;;;;;;;4977772;28;781;-85
2021/07/30 17:14:38;;;;;;;;;;;;;;;;;;4977314;28;1121;-85
2021/07/30 17:17:12;;;;;;;;;;;;;;;;;;4979777;28;1965;-85
2021/07/30 17:19:51;;;;;;;;;;;;;;;;;;4997312;28;906;-85
2021/07/30 17:22:31;;;;;;;;;;;;;;;;;;4997034;28;1406;-86
2021/07/30 17:24:56;;;;;;;;;;;;;;;;;;4996871;28;1309;-84
2021/07/30 17:27:32;;;;;;;;;;;;;;;;;;5004035;28;1373;-86
2021/07/30 17:32:55;;;;;;;;;;;;;;;;;;5098438;28;605;-85
2021/07/30 17:35:22;;;;;;;;;;;;;;;;;;5080330;28;1404;-85
2021/07/30 17:40:31;;;;;;;;;;;;;;;;;;5098441;28;613;-86
2021/07/30 17:48:28;;;;;;;;;;;;;;;;;;5098604;28;814;-86
2021/07/30 17:53:37;;;;;;;;;;;;;;;;;;5098093;28;637;-85
2021/07/30 17:56:14;;;;;;;;;;;;;;;;;;5079766;28;1941;-84
2021/07/30 17:58:55;;;;;;;;;;;;;;;;;;5079814;28;1217;-84
2021/07/30 18:01:20;;;;;;;;;;;;;;;;;;5077065;28;1359;-85
2021/07/30 18:03:45;;;;;;;;;;;;;;;;;;5079799;28;1152;-86
2021/07/30 18:06:18;;;;;;;;;;;;;;;;;;5079633;28;1251;-85
2021/07/30 18:08:50;;;;;;;;;;;;;;;;;;5079757;28;1152;-85
2021/07/30 18:11:27;;;;;;;;;;;;;;;;;;5079618;28;1200;-85
2021/07/30 18:13:59;;;;;;;;;;;;;;;;;;5079658;28;1402;-85
2021/07/30 18:16:45;;;;;;;;;;;;;;;;;;5079374;28;1942;-85
2021/07/30 18:19:32;;;;;;;;;;;;;;;;;;5079494;28;1293;-84
2021/07/30 18:21:59;;;;;;;;;;;;;;;;;;5079310;28;1307;-83
2021/07/30 18:27:14;;;;;;;;;;;;;;;;;;5096219;28;629;-84
2021/07/30 18:29:59;;;;;;;;;;;;;;;;;;5095453;28;1339;-85
2021/07/30 18:32:31;;;;;;;;;;;;;;;;;;5116507;28;1294;-84
2021/07/30 18:35:06;;;;;;;;;;;;;;;;;;5116581;28;1269;-84
2021/07/30 18:37:31;;;;;;;;;;;;;;;;;;5116279;28;1935;-84
2021/07/30 18:40:11;;;;;;;;;;;;;;;;;;5116308;28;1183;-84
2021/07/30 18:42:56;;;;;;;;;;;;;;;;;;5116295;28;1346;-83
2021/07/30 18:45:22;;;;;;;;;;;;;;;;;;5116521;28;1331;-84
2021/07/30 18:48:07;;;;;;;;;;;;;;;;;;5116149;28;1348;-84
2021/07/30 18:50:47;;;;;;;;;;;;;;;;;;5117412;28;858;-84
2021/07/30 18:53:27;;;;;;;;;;;;;;;;;;5116170;28;1249;-84
2021/07/30 18:55:59;;;;;;;;;;;;;;;;;;5116028;28;1307;-84
2021/07/30 18:58:31;;;;;;;;;;;;;;;;;;5114761;28;1101;-84
2021/07/30 19:00:57;;;;;;;;;;;;;;;;;;5115358;28;1207;-84
2021/07/30 19:03:22;;;;;;;;;;;;;;;;;;5098630;28;1280;-84
2021/07/30 19:05:59;;;;;;;;;;;;;;;;;;5116972;28;1083;-84
2021/07/30 19:08:33;;;;;;;;;;;;;;;;;;5117077;28;850;-84
2021/07/30 19:11:06;;;;;;;;;;;;;;;;;;5098723;28;1192;-83
2021/07/30 19:13:39;;;;;;;;;;;;;;;;;;5098743;28;1227;-84
2021/07/30 19:18:59;;;;;;;;;;;;;;;;;;5116765;28;609;-84
2021/07/30 19:21:26;;;;;;;;;;;;;;;;;;5098592;28;1213;-84
2021/07/30 19:24:00;;;;;;;;;;;;;;;;;;5098474;28;1216;-85
2021/07/30 19:29:09;;;;;;;;;;;;;;;;;;5116706;28;676;-84
2021/07/30 19:31:41;;;;;;;;;;;;;;;;;;5098490;28;1236;-84
2021/07/30 19:34:08;;;;;;;;;;;;;;;;;;5116625;28;936;-84
2021/07/30 19:36:52;;;;;;;;;;;;;;;;;;5116499;28;1874;-83
2021/07/30 19:42:10;;;;;;;;;;;;;;;;;;5116684;28;601;-85
2021/07/30 19:44:36;;;;;;;;;;;;;;;;;;5116611;28;933;-85
2021/07/30 19:47:04;;;;;;;;;;;;;;;;;;5098285;28;1340;-84
2021/07/30 19:49:36;;;;;;;;;;;;;;;;;;5098175;28;1237;-84
2021/07/30 19:52:04;;;;;;;;;;;;;;;;;;5116417;28;881;-83
2021/07/30 19:54:41;;;;;;;;;;;;;;;;;;5098135;28;1290;-84
2021/07/30 19:57:21;;;;;;;;;;;;;;;;;;5116328;28;1863;-84
2021/07/30 19:59:59;;;;;;;;;;;;;;;;;;5098084;28;1337;-83
2021/07/30 20:02:25;;;;;;;;;;;;;;;;;;5093029;28;1404;-85
2021/07/30 20:04:51;;;;;;;;;;;;;;;;;;5074707;28;1191;-86
2021/07/30 20:07:25;;;;;;;;;;;;;;;;;;5074571;28;1308;-85
2021/07/30 20:09:53;;;;;;;;;;;;;;;;;;5075751;28;905;-85
2021/07/30 20:12:31;;;;;;;;;;;;;;;;;;5074412;28;1263;-85
2021/07/30 20:14:57;;;;;;;;;;;;;;;;;;5075692;28;857;-85
2021/07/30 20:17:42;;;;;;;;;;;;;;;;;;5074385;28;1983;-84
2021/07/30 20:22:51;;;;;;;;;;;;;;;;;;5075631;28;687;-84
2021/07/30 20:25:31;;;;;;;;;;;;;;;;;;5059183;28;1409;-85
2021/07/30 20:27:58;;;;;;;;;;;;;;;;;;5054194;28;1294;-85
2021/07/30 20:30:24;;;;;;;;;;;;;;;;;;5054345;28;1212;-85
2021/07/30 20:33:04;;;;;;;;;;;;;;;;;;5054199;28;1213;-85
2021/07/30 20:38:13;;;;;;;;;;;;;;;;;;5055440;28;1961;-85
2021/07/30 20:40:38;;;;;;;;;;;;;;;;;;5054358;28;1256;-85
2021/07/30 20:45:56;;;;;;;;;;;;;;;;;;5055303;28;625;-84
2021/07/30 20:48:23;;;;;;;;;;;;;;;;;;5055388;28;944;-85
2021/07/30 20:50:57;;;;;;;;;;;;;;;;;;5057273;28;949;-85
2021/07/30 20:53:32;;;;;;;;;;;;;;;;;;5059057;28;920;-84
2021/07/30 20:56:03;;;;;;;;;;;;;;;;;;5057820;28;1300;-84
2021/07/30 20:58:30;;;;;;;;;;;;;;;;;;5057622;28;1222;-85
2021/07/30 21:01:12;;;;;;;;;;;;;;;;;;5057703;28;1334;-85
2021/07/30 21:03:37;;;;;;;;;;;;;;;;;;5066809;28;1199;-85
2021/07/30 21:06:15;;;;;;;;;;;;;;;;;;5078762;28;957;-86
2021/07/30 21:08:51;;;;;;;;;;;;;;;;;;5078770;28;877;-85
2021/07/30 21:14:00;;;;;;;;;;;;;;;;;;5078681;28;663;-85
2021/07/30 21:16:39;;;;;;;;;;;;;;;;;;5077250;28;1967;-85
2021/07/30 21:19:21;;;;;;;;;;;;;;;;;;5075933;28;1249;-83
2021/07/30 21:21:59;;;;;;;;;;;;;;;;;;5072420;28;1168;-84
2021/07/30 21:24:42;;;;;;;;;;;;;;;;;;5058414;28;893;-85
2021/07/30 21:29:51;;;;;;;;;;;;;;;;;;5058184;28;668;-86
2021/07/30 21:35:00;;;;;;;;;;;;;;;;;;5058251;28;613;-86
2021/07/30 21:40:09;;;;;;;;;;;;;;;;;;5058205;28;692;-85
2021/07/30 21:42:41;;;;;;;;;;;;;;;;;;5056887;28;1156;-85
2021/07/30 21:47:57;;;;;;;;;;;;;;;;;;5058029;28;645;-84
2021/07/30 21:50:28;;;;;;;;;;;;;;;;;;5062777;28;1191;-85
2021/07/30 21:53:02;;;;;;;;;;;;;;;;;;5057975;28;893;-85
2021/07/30 21:55:28;;;;;;;;;;;;;;;;;;5056717;28;1191;-84
2021/07/30 21:58:10;;;;;;;;;;;;;;;;;;5056445;28;1888;-86
2021/07/30 22:00:56;;;;;;;;;;;;;;;;;;5056474;28;1332;-85
2021/07/30 22:06:05;;;;;;;;;;;;;;;;;;5082973;28;1075;-85
2021/07/30 22:08:39;;;;;;;;;;;;;;;;;;5079656;28;1242;-84
2021/07/30 22:11:06;;;;;;;;;;;;;;;;;;5079513;28;1184;-84